Time;durP1;ratioP1;P1;durP2;ratioP2;P2;SDS_P1;SDS_P2;PMS_P1;PMS_P2;Temp;Humidity;BMP_temperature;BMP_pressure;BME280_temperature;BME280_humidity;BME280_pressure;Samples;Min_cycle;Max_cycle;Signal;HPM_P1;HPM_P2
2023/05/12 00:02:17;;;;;;;9.23;5.90;;;15.10;80.50;;;;;;5056858;28;20025;-64
2023/05/12 00:04:43;;;;;;;10.40;5.85;;;15.20;80.60;;;;;;5063089;28;20028;-64
2023/05/12 00:07:09;;;;;;;10.43;6.20;;;15.10;80.60;;;;;;5067127;28;20036;-64
2023/05/12 00:09:35;;;;;;;10.40;6.18;;;15.20;80.60;;;;;;5058466;28;20029;-65
2023/05/12 00:12:01;;;;;;;10.43;6.13;;;15.10;80.60;;;;;;5055963;28;20044;-64
2023/05/12 00:14:27;;;;;;;11.23;6.70;;;15.10;80.60;;;;;;5046195;28;20465;-64
2023/05/12 00:16:52;;;;;;;9.93;6.38;;;15.10;80.70;;;;;;5035476;28;20055;-64
2023/05/12 00:19:19;;;;;;;10.38;5.95;;;15.10;80.70;;;;;;5036435;28;20044;-64
2023/05/12 00:21:45;;;;;;;11.25;6.32;;;15.10;80.70;;;;;;5047235;28;20476;-64
2023/05/12 00:24:10;;;;;;;10.07;6.05;;;15.10;80.80;;;;;;5051797;28;20041;-64
2023/05/12 00:26:36;;;;;;;10.75;6.45;;;15.10;80.80;;;;;;5041675;28;20379;-64
2023/05/12 00:29:02;;;;;;;10.25;6.05;;;15.10;80.90;;;;;;5044807;28;20037;-64
2023/05/12 00:31:31;;;;;;;10.30;5.93;;;15.10;80.90;;;;;;5043269;28;20041;-64
2023/05/12 00:33:57;;;;;;;9.60;5.70;;;15.10;80.90;;;;;;5044996;28;20036;-64
2023/05/12 00:36:23;;;;;;;9.18;5.00;;;15.10;80.90;;;;;;5042539;28;20025;-64
2023/05/12 00:38:49;;;;;;;8.65;5.35;;;15.00;80.90;;;;;;5045121;28;20047;-64
2023/05/12 00:41:15;;;;;;;8.35;4.80;;;15.10;81.00;;;;;;5050853;28;20036;-64
2023/05/12 00:43:41;;;;;;;9.35;5.35;;;15.00;80.90;;;;;;5034082;28;20032;-64
2023/05/12 00:46:07;;;;;;;8.88;5.03;;;15.00;81.00;;;;;;5052233;28;20099;-64
2023/05/12 00:48:35;;;;;;;9.18;4.97;;;15.00;81.00;;;;;;5039152;28;20043;-64
2023/05/12 00:51:02;;;;;;;8.02;4.63;;;15.00;81.00;;;;;;5043810;28;20029;-64
2023/05/12 00:53:29;;;;;;;8.68;5.07;;;15.00;81.00;;;;;;5061505;28;20033;-64
2023/05/12 00:55:56;;;;;;;8.20;4.25;;;15.00;81.20;;;;;;5049772;28;20028;-64
2023/05/12 00:58:22;;;;;;;7.90;4.63;;;14.90;81.10;;;;;;5045849;28;20025;-64
2023/05/12 01:00:49;;;;;;;7.32;4.30;;;15.00;81.30;;;;;;5037083;28;20040;-64
2023/05/12 01:03:16;;;;;;;7.38;3.80;;;14.90;81.20;;;;;;5024169;28;20021;-64
2023/05/12 01:05:48;;;;;;;7.65;4.03;;;14.90;81.30;;;;;;5045119;28;20027;-64
2023/05/12 01:08:15;;;;;;;6.57;3.33;;;15.00;81.40;;;;;;5044296;28;20087;-64
2023/05/12 01:10:45;;;;;;;7.03;3.00;;;15.00;81.30;;;;;;5043502;28;20045;-64
2023/05/12 01:13:14;;;;;;;6.25;2.75;;;15.00;81.30;;;;;;5043686;28;20056;-64
2023/05/12 01:15:45;;;;;;;5.72;2.63;;;14.90;81.30;;;;;;5067083;28;20461;-64
2023/05/12 01:18:13;;;;;;;6.50;2.75;;;14.90;81.40;;;;;;5065444;28;20020;-64
2023/05/12 01:20:44;;;;;;;6.68;3.08;;;14.90;81.40;;;;;;5054872;28;20037;-64
2023/05/12 01:23:15;;;;;;;5.03;2.20;;;14.90;81.40;;;;;;5056312;28;20455;-64
2023/05/12 01:25:42;;;;;;;5.43;2.63;;;14.90;81.40;;;;;;5070952;28;20021;-64
2023/05/12 01:28:08;;;;;;;4.50;2.00;;;14.90;81.40;;;;;;5068869;28;20112;-64
2023/05/12 01:30:40;;;;;;;6.55;2.50;;;14.90;81.50;;;;;;5066866;28;20073;-64
2023/05/12 01:33:08;;;;;;;5.03;2.10;;;14.90;81.40;;;;;;5056422;28;20443;-64
2023/05/12 01:35:34;;;;;;;4.25;1.80;;;14.90;81.30;;;;;;5077797;28;20020;-64
2023/05/12 01:38:00;;;;;;;4.50;2.22;;;14.90;81.30;;;;;;5064784;28;20043;-64
2023/05/12 01:40:26;;;;;;;4.57;1.90;;;14.90;81.40;;;;;;5067285;28;20429;-64
2023/05/12 01:42:53;;;;;;;4.93;2.20;;;14.90;81.30;;;;;;5064113;28;20052;-64
2023/05/12 01:45:20;;;;;;;5.15;2.22;;;14.90;81.30;;;;;;5068731;28;20467;-64
2023/05/12 01:47:47;;;;;;;5.63;2.40;;;14.90;81.40;;;;;;5069513;28;20021;-64
2023/05/12 01:50:13;;;;;;;4.97;2.10;;;14.90;81.40;;;;;;5066056;28;20029;-64
2023/05/12 01:52:39;;;;;;;4.95;2.10;;;14.90;81.40;;;;;;5067639;28;20107;-64
2023/05/12 01:55:09;;;;;;;6.05;2.38;;;14.90;81.50;;;;;;5060285;28;20052;-64
2023/05/12 01:57:42;;;;;;;8.98;2.92;;;14.80;81.50;;;;;;5067985;28;20036;-64
2023/05/12 02:00:08;;;;;;;5.88;2.60;;;14.80;81.50;;;;;;5069877;28;20025;-64
2023/05/12 02:02:38;;;;;;;5.43;2.58;;;14.80;81.50;;;;;;5070116;28;20055;-64
2023/05/12 02:05:06;;;;;;;6.22;3.20;;;14.80;81.60;;;;;;5067220;28;20056;-64
2023/05/12 02:07:31;;;;;;;6.55;3.25;;;14.80;81.60;;;;;;5053876;28;20017;-64
2023/05/12 02:09:57;;;;;;;7.80;3.40;;;14.80;81.70;;;;;;5056209;28;20025;-64
2023/05/12 02:12:24;;;;;;;7.93;3.88;;;14.80;81.70;;;;;;5067360;28;20084;-64
2023/05/12 02:14:50;;;;;;;7.80;3.78;;;14.80;81.70;;;;;;5059535;28;20527;-64
2023/05/12 02:17:16;;;;;;;7.55;3.75;;;14.80;81.80;;;;;;5067316;28;20035;-64
2023/05/12 02:19:42;;;;;;;8.57;4.35;;;14.80;81.90;;;;;;5056915;28;20025;-64
2023/05/12 02:22:10;;;;;;;8.52;4.65;;;14.80;81.90;;;;;;5067168;28;20031;-64
2023/05/12 02:24:36;;;;;;;9.25;4.55;;;14.80;81.90;;;;;;5056891;28;20104;-64
2023/05/12 02:27:02;;;;;;;9.38;5.10;;;14.80;81.90;;;;;;5058124;28;20021;-65
2023/05/12 02:29:28;;;;;;;9.98;5.00;;;14.80;82.00;;;;;;5068696;28;20107;-64
2023/05/12 02:31:54;;;;;;;10.07;4.95;;;14.80;82.00;;;;;;5062312;28;20111;-64
2023/05/12 02:34:20;;;;;;;11.15;5.63;;;14.80;82.10;;;;;;5066355;28;20453;-64
2023/05/12 02:36:46;;;;;;;12.05;5.43;;;14.70;82.10;;;;;;5072281;28;20025;-64
2023/05/12 02:39:12;;;;;;;11.90;6.50;;;14.80;82.20;;;;;;5068541;28;20033;-64
2023/05/12 02:41:38;;;;;;;12.10;6.63;;;14.70;82.10;;;;;;5071649;28;20052;-64
2023/05/12 02:44:04;;;;;;;10.77;6.07;;;14.80;82.30;;;;;;5070679;28;20437;-64
2023/05/12 02:46:30;;;;;;;11.73;6.35;;;14.80;82.30;;;;;;5064229;28;20021;-64
2023/05/12 02:48:56;;;;;;;12.88;7.07;;;14.70;82.30;;;;;;5075757;28;20433;-65
2023/05/12 02:51:21;;;;;;;11.75;6.88;;;14.70;82.40;;;;;;5073638;28;20029;-64
2023/05/12 02:53:47;;;;;;;12.10;6.68;;;14.70;82.40;;;;;;5071256;28;20499;-64
2023/05/12 02:56:13;;;;;;;13.77;8.13;;;14.70;82.40;;;;;;5075209;28;20365;-64
2023/05/12 02:58:39;;;;;;;12.45;7.10;;;14.70;82.40;;;;;;5075584;28;20339;-64
2023/05/12 03:01:05;;;;;;;11.48;7.10;;;14.70;82.50;;;;;;5074500;28;20020;-64
2023/05/12 03:03:31;;;;;;;11.82;6.93;;;14.70;82.60;;;;;;5071700;28;20020;-64
2023/05/12 03:05:57;;;;;;;13.82;7.68;;;14.70;82.60;;;;;;5074712;28;20025;-64
2023/05/12 03:08:23;;;;;;;13.73;8.07;;;14.70;82.70;;;;;;5063404;28;20455;-64
2023/05/12 03:10:48;;;;;;;15.13;8.40;;;14.70;82.70;;;;;;5075482;28;20028;-64
2023/05/12 03:13:14;;;;;;;13.32;8.15;;;14.70;82.70;;;;;;5064004;28;20119;-64
2023/05/12 03:15:40;;;;;;;14.02;8.75;;;14.70;82.70;;;;;;5065056;28;20480;-64
2023/05/12 03:18:06;;;;;;;14.85;8.80;;;14.70;82.70;;;;;;5075527;28;20028;-64
2023/05/12 03:20:32;;;;;;;13.30;8.35;;;14.70;82.80;;;;;;5075204;28;20078;-64
2023/05/12 03:22:58;;;;;;;14.52;8.82;;;14.70;82.80;;;;;;5069069;28;20516;-64
2023/05/12 03:25:24;;;;;;;15.20;9.07;;;14.70;82.90;;;;;;5074736;28;20017;-64
2023/05/12 03:27:50;;;;;;;15.70;9.82;;;14.70;82.90;;;;;;5075455;28;20032;-64
2023/05/12 03:30:15;;;;;;;16.77;10.30;;;14.70;82.90;;;;;;5074896;28;20028;-64
2023/05/12 03:32:43;;;;;;;16.05;9.60;;;14.70;83.00;;;;;;5065393;28;20131;-64
2023/05/12 03:35:09;;;;;;;15.88;10.10;;;14.70;83.00;;;;;;5072925;28;20028;-64
2023/05/12 03:37:35;;;;;;;16.27;9.90;;;14.70;83.00;;;;;;5074659;28;20020;-64
2023/05/12 03:40:01;;;;;;;16.83;10.70;;;14.70;83.10;;;;;;5065389;28;20033;-64
2023/05/12 03:42:27;;;;;;;17.02;10.23;;;14.70;83.10;;;;;;5074449;28;20036;-64
2023/05/12 03:44:53;;;;;;;17.10;10.68;;;14.70;83.20;;;;;;5061840;28;20044;-64
2023/05/12 03:47:20;;;;;;;15.95;10.18;;;14.70;83.20;;;;;;5069378;28;20107;-64
2023/05/12 03:49:45;;;;;;;18.90;11.30;;;14.70;83.30;;;;;;5074721;28;20120;-64
2023/05/12 03:52:11;;;;;;;18.48;11.68;;;14.70;83.30;;;;;;5073285;28;20090;-64
2023/05/12 03:54:37;;;;;;;19.33;11.38;;;14.70;83.30;;;;;;5072034;28;20033;-64
2023/05/12 03:57:03;;;;;;;18.15;11.18;;;14.70;83.40;;;;;;5057168;28;20035;-64
2023/05/12 03:59:31;;;;;;;20.30;12.57;;;14.70;83.50;;;;;;5075531;28;20024;-64
2023/05/12 04:01:57;;;;;;;21.08;12.88;;;14.70;83.50;;;;;;5072652;28;20473;-65
2023/05/12 04:04:23;;;;;;;19.77;12.13;;;14.80;83.60;;;;;;5071088;28;20025;-64
2023/05/12 04:06:49;;;;;;;19.88;12.77;;;14.80;84.30;;;;;;5076291;28;20035;-64
2023/05/12 04:09:15;;;;;;;19.60;12.02;;;14.80;83.70;;;;;;5074671;28;20025;-65
2023/05/12 04:11:42;;;;;;;18.45;12.05;;;14.80;83.70;;;;;;5074124;28;20032;-64
2023/05/12 04:14:08;;;;;;;21.48;13.75;;;14.80;83.70;;;;;;5069360;28;20397;-64
2023/05/12 04:16:35;;;;;;;18.25;11.88;;;14.80;83.70;;;;;;5064855;28;20035;-64
2023/05/12 04:19:02;;;;;;;21.75;14.52;;;14.80;83.80;;;;;;5069556;28;20033;-64
2023/05/12 04:21:28;;;;;;;20.75;13.65;;;14.80;83.70;;;;;;5081583;28;20037;-65
2023/05/12 04:23:54;;;;;;;21.48;14.30;;;14.80;83.70;;;;;;5070528;28;20025;-65
2023/05/12 04:26:25;;;;;;;23.00;14.05;;;14.90;83.80;;;;;;5073360;28;20016;-65
2023/05/12 04:28:52;;;;;;;25.15;15.02;;;14.90;83.80;;;;;;5067409;28;20079;-64
2023/05/12 04:31:17;;;;;;;24.17;15.43;;;14.90;83.80;;;;;;5072250;28;20059;-64
2023/05/12 04:33:43;;;;;;;21.42;14.55;;;14.90;83.80;;;;;;5066435;28;20028;-64
2023/05/12 04:36:09;;;;;;;22.73;14.15;;;14.90;83.70;;;;;;5065801;28;20396;-65
2023/05/12 04:38:36;;;;;;;23.27;15.40;;;15.00;83.80;;;;;;5071701;28;20063;-65
2023/05/12 04:41:02;;;;;;;25.20;16.00;;;15.00;83.70;;;;;;5065474;28;20020;-65
2023/05/12 04:43:28;;;;;;;22.10;15.20;;;15.00;83.70;;;;;;5058445;28;20060;-66
2023/05/12 04:45:54;;;;;;;24.98;16.20;;;15.00;83.80;;;;;;5069337;28;20349;-64
2023/05/12 04:48:20;;;;;;;25.48;16.90;;;15.00;83.80;;;;;;5057339;28;20056;-64
2023/05/12 04:50:47;;;;;;;26.85;17.52;;;15.00;83.80;;;;;;5072140;28;20426;-67
2023/05/12 04:53:15;;;;;;;24.70;16.30;;;15.00;83.90;;;;;;5075262;28;20357;-67
2023/05/12 04:55:44;;;;;;;27.85;17.75;;;15.10;84.00;;;;;;5070340;28;20040;-66
2023/05/12 04:58:12;;;;;;;26.50;17.23;;;15.10;83.90;;;;;;5071078;28;20021;-70
2023/05/12 05:00:38;;;;;;;26.15;17.13;;;15.10;84.00;;;;;;5065666;28;20036;-70
2023/05/12 05:03:05;;;;;;;27.05;16.98;;;15.10;84.00;;;;;;5067533;28;20036;-70
2023/05/12 05:05:31;;;;;;;26.95;17.42;;;15.10;84.00;;;;;;5069126;28;20028;-69
2023/05/12 05:07:57;;;;;;;27.48;17.95;;;15.10;84.00;;;;;;5065545;28;20033;-69
2023/05/12 05:10:23;;;;;;;25.77;16.95;;;15.20;84.00;;;;;;5051436;28;20028;-69
2023/05/12 05:12:49;;;;;;;28.58;18.10;;;15.20;84.00;;;;;;5065418;28;20048;-69
2023/05/12 05:15:15;;;;;;;26.98;17.77;;;15.20;83.90;;;;;;5046418;28;20025;-69
2023/05/12 05:17:48;;;;;;;26.73;18.38;;;15.30;83.90;;;;;;5070534;28;20051;-70
2023/05/12 05:20:14;;;;;;;26.75;18.10;;;15.30;83.80;;;;;;5071523;28;20032;-67
2023/05/12 05:22:40;;;;;;;25.40;16.58;;;15.30;84.10;;;;;;5061833;28;20024;-66
2023/05/12 05:25:07;;;;;;;26.02;17.58;;;15.40;83.80;;;;;;5070975;28;20062;-66
2023/05/12 05:27:33;;;;;;;25.77;17.27;;;15.40;83.80;;;;;;5068257;28;20105;-67
2023/05/12 05:29:58;;;;;;;26.13;16.67;;;15.40;83.70;;;;;;5071600;28;20116;-67
2023/05/12 05:32:25;;;;;;;27.70;17.75;;;15.40;83.60;;;;;;5062032;28;20041;-67
2023/05/12 05:34:51;;;;;;;23.25;16.70;;;15.50;83.60;;;;;;5050255;28;20036;-67
2023/05/12 05:37:18;;;;;;;26.52;17.38;;;15.50;83.60;;;;;;5064604;28;20116;-67
2023/05/12 05:39:44;;;;;;;26.73;17.67;;;15.50;83.50;;;;;;5066192;28;20163;-68
2023/05/12 05:42:09;;;;;;;25.98;17.90;;;15.60;83.60;;;;;;5061717;28;20025;-67
2023/05/12 05:44:35;;;;;;;26.05;16.73;;;15.60;83.40;;;;;;5068441;28;20104;-66
2023/05/12 05:47:02;;;;;;;27.10;18.33;;;15.70;83.40;;;;;;5070325;28;20358;-66
2023/05/12 05:49:28;;;;;;;28.50;17.02;;;15.70;83.30;;;;;;5055971;28;20076;-67
2023/05/12 05:51:55;;;;;;;23.80;16.27;;;15.70;83.30;;;;;;5040827;28;20021;-66
2023/05/12 05:54:25;;;;;;;25.05;17.60;;;15.80;83.20;;;;;;5067340;28;20027;-67
2023/05/12 05:56:50;;;;;;;25.38;17.27;;;15.80;83.10;;;;;;5060885;28;20105;-66
2023/05/12 05:59:16;;;;;;;24.63;17.52;;;15.80;83.10;;;;;;5061542;28;20036;-67
2023/05/12 06:01:43;;;;;;;22.45;15.90;;;15.80;83.20;;;;;;5067097;28;20503;-66
2023/05/12 06:04:10;;;;;;;24.45;16.73;;;15.80;83.20;;;;;;5064971;28;20029;-66
2023/05/12 06:06:35;;;;;;;21.75;16.40;;;15.80;83.20;;;;;;5080225;28;20043;-67
2023/05/12 06:09:01;;;;;;;22.73;16.10;;;15.90;83.20;;;;;;5064155;28;20024;-66
2023/05/12 06:11:27;;;;;;;24.17;16.63;;;15.90;83.20;;;;;;5069587;28;20040;-66
2023/05/12 06:13:53;;;;;;;24.35;17.23;;;15.90;83.10;;;;;;5063455;28;20504;-66
2023/05/12 06:16:18;;;;;;;25.33;17.55;;;15.90;83.10;;;;;;5062507;28;20161;-64
2023/05/12 06:18:45;;;;;;;25.98;17.10;;;15.90;83.10;;;;;;5069596;28;20052;-66
2023/05/12 06:21:11;;;;;;;23.00;16.65;;;15.90;83.10;;;;;;5055259;28;20098;-69
2023/05/12 06:23:37;;;;;;;22.83;16.45;;;15.90;83.00;;;;;;5060464;28;20048;-67
2023/05/12 06:26:03;;;;;;;24.10;16.38;;;16.00;83.00;;;;;;5071109;28;20028;-67
2023/05/12 06:28:28;;;;;;;23.45;15.27;;;16.00;83.00;;;;;;5072382;28;20025;-67
2023/05/12 06:30:54;;;;;;;23.60;17.33;;;16.00;83.60;;;;;;5053779;28;20036;-68
2023/05/12 06:33:20;;;;;;;21.52;16.17;;;16.00;82.80;;;;;;5052463;28;20060;-68
2023/05/12 06:35:46;;;;;;;24.08;16.33;;;16.10;82.80;;;;;;5068446;28;20404;-68
2023/05/12 06:38:12;;;;;;;22.33;16.02;;;16.20;82.70;;;;;;5053720;28;20028;-67
2023/05/12 06:40:37;;;;;;;23.67;16.65;;;16.20;82.60;;;;;;5058356;28;20039;-67
2023/05/12 06:43:03;;;;;;;21.23;16.02;;;16.20;82.50;;;;;;5072996;28;20031;-67
2023/05/12 06:45:32;;;;;;;22.50;15.98;;;16.20;82.30;;;;;;5069767;28;20024;-68
2023/05/12 06:47:58;;;;;;;23.45;16.40;;;16.30;82.30;;;;;;5067182;28;20409;-68
2023/05/12 06:50:26;;;;;;;22.67;15.65;;;16.30;82.10;;;;;;5072659;28;20056;-68
2023/05/12 06:52:52;;;;;;;22.50;16.08;;;16.40;82.00;;;;;;5072481;28;20090;-68
2023/05/12 06:55:19;;;;;;;23.10;15.70;;;16.50;81.90;;;;;;5064440;28;20495;-69
2023/05/12 06:57:45;;;;;;;21.55;16.52;;;16.60;81.80;;;;;;5068787;28;20044;-70
2023/05/12 07:00:11;;;;;;;21.25;15.35;;;16.80;81.50;;;;;;5060210;28;20072;-69
2023/05/12 07:02:37;;;;;;;21.70;14.40;;;16.90;81.00;;;;;;5067176;28;20647;-69
2023/05/12 07:05:03;;;;;;;17.90;14.45;;;17.10;80.70;;;;;;5069538;28;20095;-69
2023/05/12 07:07:29;;;;;;;20.42;13.80;;;17.30;80.40;;;;;;5066108;28;20412;-69
2023/05/12 07:09:55;;;;;;;19.65;14.30;;;17.60;79.90;;;;;;5072441;28;20360;-69
2023/05/12 07:12:21;;;;;;;18.30;13.60;;;17.70;79.40;;;;;;5069739;28;20035;-69
2023/05/12 07:14:47;;;;;;;19.40;13.77;;;17.90;79.20;;;;;;5060228;28;20143;-69
2023/05/12 07:17:13;;;;;;;18.13;12.98;;;18.20;78.70;;;;;;5071701;28;20031;-68
2023/05/12 07:19:39;;;;;;;15.13;11.70;;;18.50;78.10;;;;;;5072456;28;20025;-71
2023/05/12 07:22:05;;;;;;;14.60;10.38;;;18.80;77.40;;;;;;5069858;28;20350;-70
2023/05/12 07:24:31;;;;;;;16.08;10.90;;;19.10;76.70;;;;;;5040113;28;20021;-70
2023/05/12 07:26:58;;;;;;;15.98;11.57;;;19.20;76.10;;;;;;5065297;28;20429;-70
2023/05/12 07:29:23;;;;;;;14.95;11.38;;;19.20;75.70;;;;;;5074020;28;20372;-69
2023/05/12 07:31:49;;;;;;;15.35;11.77;;;19.20;75.50;;;;;;5072055;28;20033;-70
2023/05/12 07:34:15;;;;;;;16.10;11.60;;;19.20;75.20;;;;;;5071696;28;20027;-70
2023/05/12 07:36:41;;;;;;;16.77;11.65;;;19.20;75.00;;;;;;5064225;28;20103;-70
2023/05/12 07:39:07;;;;;;;14.80;10.52;;;19.20;74.70;;;;;;5075575;28;20119;-71
2023/05/12 07:41:32;;;;;;;14.55;10.73;;;19.30;74.50;;;;;;5075119;28;20082;-70
2023/05/12 07:43:58;;;;;;;13.80;9.77;;;19.40;74.10;;;;;;5073414;28;20131;-70
2023/05/12 07:46:24;;;;;;;14.18;9.88;;;19.60;73.70;;;;;;5061497;28;20093;-70
2023/05/12 07:48:50;;;;;;;12.98;9.50;;;19.70;73.20;;;;;;5069147;28;20028;-72
2023/05/12 07:51:15;;;;;;;14.80;10.73;;;19.80;72.70;;;;;;5072630;28;20025;-68
2023/05/12 07:53:41;;;;;;;12.95;9.55;;;19.90;72.20;;;;;;5062297;28;20036;-70
2023/05/12 07:56:07;;;;;;;12.95;9.55;;;19.90;72.10;;;;;;5069276;28;20476;-68
2023/05/12 07:58:32;;;;;;;12.93;9.55;;;20.00;71.80;;;;;;5074915;28;20038;-70
2023/05/12 08:00:59;;;;;;;13.25;8.98;;;20.10;72.10;;;;;;5064286;28;20056;-70
2023/05/12 08:03:25;;;;;;;13.05;8.70;;;20.30;71.10;;;;;;5072679;28;20021;-70
2023/05/12 08:05:51;;;;;;;11.90;8.18;;;20.40;70.70;;;;;;5065387;28;20123;-70
2023/05/12 08:08:17;;;;;;;11.95;8.02;;;20.50;70.30;;;;;;5053299;28;20067;-70
2023/05/12 08:10:43;;;;;;;11.27;7.00;;;20.60;70.00;;;;;;5065384;28;20059;-70
2023/05/12 08:13:09;;;;;;;11.23;7.80;;;20.80;69.80;;;;;;5073327;28;20105;-70
2023/05/12 08:15:35;;;;;;;13.32;8.00;;;20.90;69.40;;;;;;5070920;28;20191;-71
2023/05/12 08:18:01;;;;;;;10.05;7.00;;;21.00;69.00;;;;;;5071874;28;20104;-71
2023/05/12 08:20:27;;;;;;;11.32;7.72;;;21.10;68.60;;;;;;5073703;28;20059;-71
2023/05/12 08:22:52;;;;;;;10.40;7.03;;;21.10;68.30;;;;;;5076916;28;20038;-71
2023/05/12 08:25:18;;;;;;;10.88;6.55;;;21.10;68.20;;;;;;5075126;28;20115;-71
2023/05/12 08:27:44;;;;;;;10.77;6.88;;;21.10;67.90;;;;;;5058371;28;20143;-71
2023/05/12 08:30:11;;;;;;;9.90;6.70;;;21.10;67.60;;;;;;5071350;28;20043;-71
2023/05/12 08:32:36;;;;;;;10.38;6.40;;;21.10;67.30;;;;;;5075053;28;20020;-71
2023/05/12 08:35:02;;;;;;;9.80;5.88;;;20.90;67.10;;;;;;5076029;28;20038;-71
2023/05/12 08:37:28;;;;;;;9.35;5.80;;;20.80;67.10;;;;;;5075920;28;20025;-70
2023/05/12 08:39:55;;;;;;;8.48;5.03;;;20.80;67.10;;;;;;5069533;28;20035;-72
2023/05/12 08:42:42;;;;;;;9.38;5.32;;;20.80;67.10;;;;;;5075836;28;20025;-70
2023/05/12 08:45:10;;;;;;;8.20;5.40;;;20.80;67.00;;;;;;5074972;28;20122;-71
2023/05/12 08:47:37;;;;;;;7.95;5.28;;;20.60;66.90;;;;;;5074866;28;20044;-71
2023/05/12 08:50:04;;;;;;;7.82;5.07;;;20.40;66.90;;;;;;5057529;28;20438;-71
2023/05/12 08:52:32;;;;;;;7.55;4.63;;;20.30;66.90;;;;;;5071613;28;20028;-70
2023/05/12 08:54:59;;;;;;;7.93;5.25;;;20.40;66.80;;;;;;5075874;28;20384;-70
2023/05/12 08:57:26;;;;;;;7.70;4.40;;;20.30;66.70;;;;;;5073767;28;20104;-71
2023/05/12 08:59:56;;;;;;;6.85;3.80;;;20.30;66.60;;;;;;5072657;28;20039;-70
2023/05/12 09:02:23;;;;;;;6.45;3.72;;;20.30;66.40;;;;;;5062984;28;20483;-71
2023/05/12 09:04:53;;;;;;;6.60;3.90;;;20.30;66.20;;;;;;5074333;28;20067;-71
2023/05/12 09:07:23;;;;;;;6.43;3.50;;;20.30;65.80;;;;;;5073571;28;20322;-70
2023/05/12 09:09:53;;;;;;;6.90;3.60;;;20.30;65.70;;;;;;5074843;28;20039;-71
2023/05/12 09:12:20;;;;;;;6.63;3.65;;;20.40;65.40;;;;;;5074356;28;20059;-71
2023/05/12 09:14:53;;;;;;;6.80;3.17;;;20.50;65.20;;;;;;5075250;28;20136;-70
2023/05/12 09:17:19;;;;;;;4.95;2.63;;;20.60;64.60;;;;;;5068697;28;20041;-71
2023/05/12 09:19:45;;;;;;;6.32;3.17;;;20.70;64.30;;;;;;5066756;28;20132;-70
2023/05/12 09:22:13;;;;;;;6.88;3.05;;;20.80;64.10;;;;;;5057081;28;20445;-70
2023/05/12 09:24:40;;;;;;;7.53;3.08;;;20.80;63.90;;;;;;5075288;28;20025;-70
2023/05/12 09:27:06;;;;;;;7.07;3.25;;;20.80;63.70;;;;;;5072452;28;20028;-70
2023/05/12 09:29:33;;;;;;;6.15;3.38;;;20.80;63.60;;;;;;5075004;28;20021;-70
2023/05/12 09:32:00;;;;;;;6.07;2.95;;;20.90;63.40;;;;;;5075235;28;20043;-70
2023/05/12 09:34:28;;;;;;;5.43;2.97;;;20.80;63.20;;;;;;5057298;28;20032;-70
2023/05/12 09:36:55;;;;;;;4.78;2.53;;;20.80;62.90;;;;;;5056099;28;20369;-70
2023/05/12 09:39:21;;;;;;;4.75;2.60;;;20.80;62.70;;;;;;5074787;28;20420;-70
2023/05/12 09:41:47;;;;;;;5.35;2.70;;;20.80;62.70;;;;;;5074788;28;20155;-70
2023/05/12 09:44:17;;;;;;;5.35;2.63;;;20.80;62.60;;;;;;5073726;28;20029;-70
2023/05/12 09:46:44;;;;;;;5.47;2.73;;;20.80;62.50;;;;;;5074825;28;20028;-70
2023/05/12 09:49:10;;;;;;;5.03;2.47;;;20.80;62.60;;;;;;5073503;28;20943;-70
2023/05/12 09:51:36;;;;;;;5.30;2.50;;;20.80;62.40;;;;;;5073366;28;20365;-70
2023/05/12 09:54:03;;;;;;;4.72;2.40;;;20.80;62.40;;;;;;5073532;28;20028;-70
2023/05/12 09:56:31;;;;;;;5.65;2.80;;;20.80;62.20;;;;;;5074258;28;20060;-70
2023/05/12 09:58:57;;;;;;;5.45;2.55;;;20.70;62.20;;;;;;5071886;28;20047;-70
2023/05/12 10:01:24;;;;;;;4.78;2.50;;;20.70;62.30;;;;;;5061194;28;20056;-70
2023/05/12 10:03:55;;;;;;;6.18;2.45;;;20.70;62.20;;;;;;5074365;28;20171;-70
2023/05/12 10:06:27;;;;;;;;;;;20.70;61.90;;;;;;5074919;28;20039;-70
2023/05/12 10:09:19;;;;;;;5.85;2.45;;;20.60;62.30;;;;;;5073314;28;19966;-70
2023/05/12 10:11:46;;;;;;;4.60;2.17;;;20.60;62.20;;;;;;5066076;28;20048;-70
2023/05/12 10:14:13;;;;;;;4.60;2.40;;;20.60;62.30;;;;;;5073035;28;20335;-70
2023/05/12 10:16:40;;;;;;;6.00;2.75;;;20.50;62.10;;;;;;5073126;28;20169;-70
2023/05/12 10:19:05;;;;;;;5.43;2.63;;;20.50;62.00;;;;;;5074818;28;20116;-70
2023/05/12 10:21:31;;;;;;;7.03;2.55;;;20.50;61.80;;;;;;5068124;28;20124;-70
2023/05/12 10:23:58;;;;;;;5.28;2.55;;;20.50;61.70;;;;;;5070386;28;20029;-70
2023/05/12 10:26:24;;;;;;;6.30;2.83;;;20.50;61.60;;;;;;5074252;28;20024;-69
2023/05/12 10:28:52;;;;;;;6.30;2.72;;;20.50;61.40;;;;;;5074213;28;20345;-69
2023/05/12 10:31:19;;;;;;;3.95;2.08;;;20.60;61.20;;;;;;5067443;28;20471;-69
2023/05/12 10:33:56;;;;;;;5.63;2.80;;;20.60;61.10;;;;;;5056663;28;20418;-69
2023/05/12 10:36:22;;;;;;;5.43;2.65;;;20.70;61.00;;;;;;5065592;28;20087;-69
2023/05/12 10:38:50;;;;;;;5.57;2.90;;;20.70;60.90;;;;;;5066574;28;20041;-69
2023/05/12 10:41:27;;;;;;;5.80;2.95;;;20.80;60.90;;;;;;5071671;28;20024;-69
2023/05/12 10:43:53;;;;;;;5.57;2.38;;;20.90;60.80;;;;;;5059194;28;20048;-72
2023/05/12 10:46:20;;;;;;;4.93;2.60;;;20.90;60.70;;;;;;5072419;28;20025;-69
2023/05/12 10:48:49;;;;;;;6.38;2.20;;;20.90;60.30;;;;;;5068803;28;20323;-70
2023/05/12 10:51:27;;;;;;;4.72;2.40;;;20.90;60.20;;;;;;5072054;28;20036;-69
2023/05/12 10:53:59;;;;;;;5.38;2.45;;;21.00;60.00;;;;;;5060016;28;20033;-70
2023/05/12 10:56:39;;;;;;;4.95;2.22;;;21.10;59.80;;;;;;5071780;28;20033;-69
2023/05/12 10:59:18;;;;;;;4.82;2.30;;;21.30;59.60;;;;;;5065783;28;20032;-69
2023/05/12 11:02:02;;;;;;;4.75;2.30;;;21.60;58.90;;;;;;5068249;28;20108;-69
2023/05/12 11:04:39;;;;;;;4.68;2.38;;;21.90;58.60;;;;;;5075725;28;20027;-69
2023/05/12 11:07:08;;;;;;;4.68;2.42;;;22.30;58.10;;;;;;5077231;28;20025;-69
2023/05/12 11:09:41;;;;;;;4.65;2.20;;;22.60;57.80;;;;;;5076840;28;20047;-69
2023/05/12 11:12:09;;;;;;;4.72;2.10;;;22.90;57.10;;;;;;5072874;28;20122;-70
2023/05/12 11:14:35;;;;;;;4.47;2.38;;;23.20;56.90;;;;;;5068215;28;20473;-71
2023/05/12 11:17:01;;;;;;;4.00;2.08;;;23.40;56.60;;;;;;5066379;28;20029;-70
2023/05/12 11:19:27;;;;;;;4.75;2.35;;;23.50;56.30;;;;;;5059068;28;20036;-70
2023/05/12 11:21:57;;;;;;;3.92;1.88;;;23.50;56.10;;;;;;5075200;28;20025;-69
2023/05/12 11:24:23;;;;;;;4.47;2.17;;;23.50;55.80;;;;;;5071702;28;20417;-70
2023/05/12 11:26:50;;;;;;;5.63;2.50;;;23.50;55.80;;;;;;5070027;28;20460;-69
2023/05/12 11:29:20;;;;;;;5.15;2.10;;;23.40;55.70;;;;;;5071342;28;20033;-70
2023/05/12 11:31:50;;;;;;;5.00;2.20;;;23.30;55.80;;;;;;5062995;28;20123;-70
2023/05/12 11:34:21;;;;;;;3.90;2.20;;;23.30;55.10;;;;;;5054062;28;20120;-70
2023/05/12 11:36:47;;;;;;;4.72;2.30;;;23.30;55.30;;;;;;5067804;28;20111;-69
2023/05/12 11:39:20;;;;;;;5.35;2.58;;;23.20;55.20;;;;;;5075933;28;20462;-69
2023/05/12 11:41:47;;;;;;;5.15;2.70;;;23.20;55.10;;;;;;5058112;28;20021;-69
2023/05/12 11:44:14;;;;;;;4.78;2.45;;;23.10;55.20;;;;;;5067887;28;20074;-69
2023/05/12 11:46:40;;;;;;;4.95;2.60;;;23.20;55.40;;;;;;5069134;28;20422;-69
2023/05/12 11:49:11;;;;;;;4.78;2.22;;;23.10;55.20;;;;;;5072371;28;20063;-70
2023/05/12 11:51:41;;;;;;;6.03;2.30;;;23.20;55.00;;;;;;5065414;28;20106;-69
2023/05/12 11:54:07;;;;;;;4.40;2.17;;;23.20;54.90;;;;;;5070287;28;20039;-71
2023/05/12 11:56:33;;;;;;;5.03;2.22;;;23.20;54.70;;;;;;5064164;28;20033;-70
2023/05/12 11:58:59;;;;;;;4.97;2.10;;;23.40;54.50;;;;;;5075677;28;20024;-71
2023/05/12 12:01:25;;;;;;;5.32;2.35;;;23.50;54.50;;;;;;5059613;28;20021;-70
2023/05/12 12:03:53;;;;;;;4.65;2.08;;;23.60;54.50;;;;;;5071762;28;20016;-69
2023/05/12 12:06:21;;;;;;;6.47;2.60;;;23.70;54.40;;;;;;5071267;28;20024;-70
2023/05/12 12:08:54;;;;;;;4.35;2.25;;;23.70;54.00;;;;;;5074923;28;20104;-69
2023/05/12 12:11:21;;;;;;;5.90;2.75;;;23.60;53.60;;;;;;5075924;28;20056;-70
2023/05/12 12:13:55;;;;;;;4.93;2.50;;;23.60;53.70;;;;;;5069207;28;20051;-70
2023/05/12 12:16:25;;;;;;;5.45;2.10;;;23.60;54.10;;;;;;5076628;28;20049;-71
2023/05/12 12:18:51;;;;;;;5.35;2.47;;;23.70;53.50;;;;;;5070213;28;20334;-71
2023/05/12 12:21:17;;;;;;;5.10;2.53;;;23.70;53.20;;;;;;5066519;28;20032;-69
2023/05/12 12:23:42;;;;;;;4.82;2.28;;;23.70;52.70;;;;;;5066474;28;20401;-70
2023/05/12 12:26:08;;;;;;;3.92;2.00;;;23.70;52.70;;;;;;5070286;28;20056;-70
2023/05/12 12:28:34;;;;;;;5.05;2.60;;;23.70;52.70;;;;;;5068116;28;20211;-70
2023/05/12 12:31:00;;;;;;;5.32;2.63;;;23.60;52.70;;;;;;5071061;28;20453;-72
2023/05/12 12:33:26;;;;;;;6.88;2.42;;;23.60;52.80;;;;;;5061186;28;20411;-69
2023/05/12 12:35:52;;;;;;;5.43;2.70;;;23.60;52.80;;;;;;5068577;28;20306;-69
2023/05/12 12:38:17;;;;;;;4.53;2.17;;;23.50;52.70;;;;;;5062296;28;20036;-68